Time;durP1;ratioP1;P1;durP2;ratioP2;P2;SDS_P1;SDS_P2;PMS_P1;PMS_P2;Temp;Humidity;BMP_temperature;BMP_pressure;BME280_temperature;BME280_humidity;BME280_pressure;Samples;Min_cycle;Max_cycle;Signal;HPM_P1;HPM_P2
2023/01/02 00:00:07;;;;;;;1999.90;999.90;;;;;;;11.13;100.00;99045.78;5034347;28;20072;-75
2023/01/02 00:02:32;;;;;;;1999.90;999.90;;;;;;;11.17;100.00;99038.66;5041026;28;20025;-76
2023/01/02 00:04:58;;;;;;;1999.90;999.90;;;;;;;11.10;100.00;99041.66;5035979;28;20037;-76
2023/01/02 00:07:26;;;;;;;1999.90;999.90;;;;;;;11.12;100.00;99041.41;5047304;28;20033;-75
2023/01/02 00:09:51;;;;;;;1999.90;999.90;;;;;;;11.10;100.00;99047.16;5039752;28;20036;-77
2023/01/02 00:12:17;;;;;;;1999.90;999.90;;;;;;;11.13;100.00;99043.88;5040127;28;20470;-77
2023/01/02 00:14:42;;;;;;;1999.90;999.90;;;;;;;11.16;100.00;99046.06;5040403;28;20033;-76
2023/01/02 00:17:07;;;;;;;1999.90;999.90;;;;;;;11.09;100.00;99039.19;5034491;28;20029;-76
2023/01/02 00:19:33;;;;;;;1999.90;999.90;;;;;;;11.14;100.00;99041.94;5045531;28;20033;-75
2023/01/02 00:21:58;;;;;;;1999.90;999.90;;;;;;;11.12;100.00;99039.47;5024235;28;20064;-77
2023/01/02 00:24:23;;;;;;;1999.90;999.90;;;;;;;11.11;100.00;99029.63;5023626;28;20099;-78
2023/01/02 00:26:49;;;;;;;1999.90;999.90;;;;;;;11.09;100.00;99031.81;5022265;28;20531;-77
2023/01/02 00:29:14;;;;;;;1999.90;999.90;;;;;;;11.07;100.00;99019.47;5024767;28;20509;-77
2023/01/02 00:31:39;;;;;;;1999.90;999.90;;;;;;;11.07;100.00;99024.97;5018347;28;20040;-75
2023/01/02 00:34:05;;;;;;;1999.90;999.90;;;;;;;11.06;100.00;99023.31;5020681;28;20052;-77
2023/01/02 00:36:30;;;;;;;1999.90;999.90;;;;;;;11.04;100.00;99020.03;5021226;28;20106;-75
2023/01/02 00:38:56;;;;;;;1999.90;999.90;;;;;;;11.00;100.00;99013.44;5019966;28;20043;-74
2023/01/02 00:41:22;;;;;;;1999.90;999.90;;;;;;;10.92;100.00;99016.72;5025026;28;20482;-74
2023/01/02 00:43:50;;;;;;;1999.90;999.90;;;;;;;10.88;100.00;99008.25;5043395;28;20021;-73
2023/01/02 00:46:17;;;;;;;1999.90;999.90;;;;;;;10.86;100.00;99012.34;5036376;28;20207;-74
2023/01/02 00:48:43;;;;;;;1999.90;999.90;;;;;;;10.85;100.00;99017.00;5034382;28;20124;-75
2023/01/02 00:51:08;;;;;;;1999.90;999.90;;;;;;;10.79;100.00;99018.06;5050256;28;20167;-75
2023/01/02 00:53:33;;;;;;;1999.90;999.90;;;;;;;10.81;100.00;99017.81;5051253;28;20051;-74
2023/01/02 00:55:59;;;;;;;1999.90;999.90;;;;;;;10.79;100.00;99011.78;5042315;28;20025;-78
2023/01/02 00:58:24;;;;;;;1999.90;999.90;;;;;;;10.75;100.00;99016.97;5033142;28;20485;-75
2023/01/02 01:00:50;;;;;;;1999.90;999.90;;;;;;;10.76;100.00;99015.88;5032575;28;20060;-74
2023/01/02 01:03:15;;;;;;;1999.90;999.90;;;;;;;10.69;100.00;99018.88;5032669;28;20385;-75
2023/01/02 01:05:41;;;;;;;1999.90;999.90;;;;;;;10.63;100.00;99022.69;5032497;28;20041;-75
2023/01/02 01:08:06;;;;;;;1999.90;999.90;;;;;;;10.64;100.00;99024.34;5032520;28;20034;-75
2023/01/02 01:10:32;;;;;;;1999.90;999.90;;;;;;;10.58;100.00;99008.19;5026913;28;20041;-74
2023/01/02 01:12:57;;;;;;;1999.90;999.90;;;;;;;10.60;100.00;99014.19;5025482;28;20021;-76
2023/01/02 01:15:22;;;;;;;1999.90;999.90;;;;;;;10.60;100.00;99017.75;5020737;28;20116;-76
2023/01/02 01:17:49;;;;;;;1999.90;999.90;;;;;;;10.49;100.00;99002.41;5022781;28;20068;-76
2023/01/02 01:20:14;;;;;;;1999.90;999.90;;;;;;;10.56;100.00;99013.91;5021664;28;20529;-75
2023/01/02 01:22:40;;;;;;;1999.90;999.90;;;;;;;10.53;100.00;99008.97;5022439;28;20109;-75
2023/01/02 01:25:05;;;;;;;1999.90;999.90;;;;;;;10.53;100.00;99008.97;5019879;28;20026;-76
2023/01/02 01:27:31;;;;;;;1999.90;999.90;;;;;;;10.48;100.00;99008.97;5021784;28;20554;-74
2023/01/02 01:29:56;;;;;;;1999.90;999.90;;;;;;;10.52;100.00;99012.81;5022021;28;20068;-75
2023/01/02 01:32:22;;;;;;;1999.90;999.90;;;;;;;10.56;100.00;99005.69;5020449;28;20037;-74
2023/01/02 01:34:48;;;;;;;1999.90;999.90;;;;;;;10.59;100.00;98999.69;5022522;28;20061;-74
2023/01/02 01:37:14;;;;;;;1999.90;999.90;;;;;;;10.61;100.00;98997.53;5022435;28;20021;-73
2023/01/02 01:39:39;;;;;;;1999.90;999.90;;;;;;;10.67;100.00;98999.19;5018506;28;20402;-76
2023/01/02 01:42:04;;;;;;;1999.90;999.90;;;;;;;10.63;100.00;98997.22;5021232;28;20540;-76
2023/01/02 01:45:02;;;;;;;1999.90;999.90;;;;;;;10.60;100.00;98993.13;5022237;28;20040;-75
2023/01/02 01:47:43;;;;;;;1999.90;999.90;;;;;;;10.56;100.00;98997.50;5000698;28;20159;-75
2023/01/02 01:50:16;;;;;;;1999.90;999.90;;;;;;;10.62;100.00;98993.66;5020864;28;20029;-76
2023/01/02 01:52:56;;;;;;;1999.90;999.90;;;;;;;10.68;100.00;98998.06;5032504;28;20053;-75
2023/01/02 01:55:35;;;;;;;1999.90;999.90;;;;;;;10.64;100.00;98988.78;5034661;28;20441;-75
2023/01/02 01:58:05;;;;;;;1999.90;999.90;;;;;;;10.64;100.00;98991.50;5022396;28;20501;-75
2023/01/02 02:00:31;;;;;;;1999.90;999.90;;;;;;;10.62;100.00;98981.91;5012492;28;20033;-76
2023/01/02 02:03:00;;;;;;;1999.90;999.90;;;;;;;10.65;100.00;98978.66;5012387;28;20029;-75
2023/01/02 02:05:29;;;;;;;1999.90;999.90;;;;;;;10.59;100.00;98980.53;5011764;28;20500;-75
2023/01/02 02:08:03;;;;;;;1999.90;999.90;;;;;;;10.60;100.00;98982.19;5012015;28;20466;-76
2023/01/02 02:10:29;;;;;;;1999.90;999.90;;;;;;;10.59;100.00;98979.72;5012861;28;20034;-75
2023/01/02 02:12:54;;;;;;;1999.90;999.90;;;;;;;10.54;100.00;98976.97;5012998;28;20025;-76
2023/01/02 02:15:27;;;;;;;1999.90;999.90;;;;;;;10.62;100.00;98982.72;5017272;28;20029;-74
2023/01/02 02:18:14;;;;;;;1999.90;999.90;;;;;;;10.60;100.00;98975.88;5013851;28;20375;-75
2023/01/02 02:20:53;;;;;;;1999.90;999.90;;;;;;;10.56;100.00;98969.31;5010235;28;20052;-75
2023/01/02 02:23:42;;;;;;;1999.90;999.90;;;;;;;10.56;100.00;98975.59;5011471;28;20085;-75
2023/01/02 02:26:29;;;;;;;1999.90;999.90;;;;;;;10.52;100.00;98973.69;5011487;28;20803;-75
2023/01/02 02:29:16;;;;;;;1999.90;999.90;;;;;;;10.52;100.00;98969.06;5011658;28;20022;-75
2023/01/02 02:31:53;;;;;;;1999.90;999.90;;;;;;;10.51;100.00;98961.94;5010303;28;20030;-75
2023/01/02 02:34:56;;;;;;;1999.90;999.90;;;;;;;10.48;100.00;98969.84;5012226;28;20053;-74
2023/01/02 02:37:25;;;;;;;1999.90;999.90;;;;;;;10.41;100.00;98972.84;5012257;28;20413;-76
2023/01/02 02:39:53;;;;;;;1999.90;999.90;;;;;;;10.41;100.00;98970.09;5012143;28;20029;-75
2023/01/02 02:42:37;;;;;;;1999.90;999.90;;;;;;;10.37;100.00;98963.50;5011301;28;20076;-76
2023/01/02 02:45:26;;;;;;;1999.90;999.90;;;;;;;10.39;100.00;98969.56;5010961;28;20034;-75
2023/01/02 02:48:01;;;;;;;1999.90;999.90;;;;;;;10.39;100.00;98958.63;4991686;28;20065;-75
2023/01/02 02:50:50;;;;;;;1999.90;999.90;;;;;;;10.31;100.00;98961.03;5011194;28;20110;-76
2023/01/02 02:53:31;;;;;;;1999.90;999.90;;;;;;;10.29;100.00;98964.03;5010942;28;20505;-75
2023/01/02 02:56:01;;;;;;;1999.90;999.90;;;;;;;10.29;100.00;98955.00;5011302;28;20038;-75
2023/01/02 02:58:28;;;;;;;1999.90;999.90;;;;;;;10.28;100.00;98956.09;5011380;28;20394;-75
2023/01/02 03:01:03;;;;;;;1999.90;999.90;;;;;;;10.25;100.00;98952.00;5010983;28;20032;-75
2023/01/02 03:03:28;;;;;;;1999.90;999.90;;;;;;;10.29;100.00;98953.09;5009544;28;20022;-75
2023/01/02 03:06:11;;;;;;;1999.90;999.90;;;;;;;10.36;100.00;98953.69;5010769;28;20038;-75
2023/01/02 03:08:59;;;;;;;1999.90;999.90;;;;;;;10.37;100.00;98947.09;5010899;28;20060;-75
2023/01/02 03:11:38;;;;;;;1999.90;999.90;;;;;;;10.44;100.00;98947.69;5011061;28;20030;-75
2023/01/02 03:14:16;;;;;;;1999.90;999.90;;;;;;;10.49;100.00;98944.16;5010628;28;20116;-76
2023/01/02 03:16:45;;;;;;;1999.90;999.90;;;;;;;10.53;100.00;98945.22;5010894;28;20030;-76
2023/01/02 03:19:22;;;;;;;1999.90;999.90;;;;;;;10.52;100.00;98943.59;5011327;28;20030;-76
2023/01/02 03:21:56;;;;;;;1999.90;999.90;;;;;;;10.57;100.00;98935.41;5010777;28;20076;-76
2023/01/02 03:24:24;;;;;;;1999.90;999.90;;;;;;;10.66;100.00;98952.91;5011851;28;20433;-75
2023/01/02 03:26:54;;;;;;;1999.90;999.90;;;;;;;10.62;100.00;98952.63;5010995;28;20052;-75
2023/01/02 03:29:33;;;;;;;1999.90;999.90;;;;;;;10.63;100.00;98953.47;5011389;28;20474;-75
2023/01/02 03:32:00;;;;;;;1999.90;999.90;;;;;;;10.68;100.00;98946.06;5010972;28;20049;-75
2023/01/02 03:34:30;;;;;;;1999.90;999.90;;;;;;;10.65;100.00;98938.41;5010527;28;20034;-76
2023/01/02 03:37:02;;;;;;;1999.90;999.90;;;;;;;10.74;100.00;98938.72;5010715;28;20030;-75
2023/01/02 03:39:31;;;;;;;1999.90;999.90;;;;;;;10.74;100.00;98933.25;5010022;28;20101;-76
2023/01/02 03:41:59;;;;;;;1999.90;999.90;;;;;;;10.77;100.00;98937.34;5012885;28;20117;-76
2023/01/02 03:44:31;;;;;;;1999.90;999.90;;;;;;;10.86;100.00;98933.78;5014204;28;20088;-76
2023/01/02 03:47:26;;;;;;;1999.90;999.90;;;;;;;10.88;100.00;98936.25;5014568;28;20026;-75
2023/01/02 03:49:55;;;;;;;1999.90;999.90;;;;;;;10.89;100.00;98936.00;5007292;28;20046;-75
2023/01/02 03:52:21;;;;;;;1999.90;999.90;;;;;;;10.92;100.00;98940.09;5012774;28;20153;-76
2023/01/02 03:54:47;;;;;;;1999.90;999.90;;;;;;;10.93;100.00;98936.25;5013649;28;20859;-75
2023/01/02 03:57:50;;;;;;;1999.90;999.90;;;;;;;11.00;100.00;98942.28;5014351;28;20022;-75
2023/01/02 04:00:20;;;;;;;1999.90;999.90;;;;;;;11.05;100.00;98936.81;5013923;28;20025;-75
2023/01/02 04:02:52;;;;;;;1999.90;999.90;;;;;;;10.98;100.00;98936.25;5012572;28;20040;-76
2023/01/02 04:05:31;;;;;;;1999.90;999.90;;;;;;;11.02;100.00;98934.63;5015183;28;20037;-75
2023/01/02 04:08:04;;;;;;;1999.90;999.90;;;;;;;10.95;100.00;98939.53;5014080;28;20057;-74
2023/01/02 04:10:33;;;;;;;1999.90;999.90;;;;;;;11.00;100.00;98934.88;5013812;28;20029;-75
2023/01/02 04:13:03;;;;;;;1999.90;999.90;;;;;;;11.03;100.00;98931.59;5013983;28;20080;-75
2023/01/02 04:15:33;;;;;;;1999.90;999.90;;;;;;;10.98;100.00;98933.50;5013816;28;20037;-76
2023/01/02 04:18:04;;;;;;;1999.90;999.90;;;;;;;10.99;100.00;98925.03;5012320;28;20022;-75
2023/01/02 04:20:33;;;;;;;1999.90;999.90;;;;;;;10.98;100.00;98930.78;5013689;28;20022;-76
2023/01/02 04:23:07;;;;;;;1999.90;999.90;;;;;;;10.94;100.00;98919.56;5013657;28;20470;-74
2023/01/02 04:25:42;;;;;;;1999.90;999.90;;;;;;;10.96;100.00;98931.06;5013644;28;20036;-74
2023/01/02 04:28:24;;;;;;;1999.90;999.90;;;;;;;10.93;100.00;98925.31;5019784;28;20060;-75
2023/01/02 04:30:56;;;;;;;1999.90;999.90;;;;;;;10.90;100.00;98926.66;5019016;28;20018;-75
2023/01/02 04:33:23;;;;;;;1999.90;999.90;;;;;;;10.88;100.00;98930.78;5020457;28;20037;-75
2023/01/02 04:35:51;;;;;;;1999.90;999.90;;;;;;;10.95;100.00;98934.88;5033099;28;20065;-75
2023/01/02 04:38:16;;;;;;;1999.90;999.90;;;;;;;10.94;100.00;98924.19;5032889;28;20060;-76
2023/01/02 04:40:42;;;;;;;1999.90;999.90;;;;;;;10.91;100.00;98916.53;5032590;28;20061;-75
2023/01/02 04:43:18;;;;;;;1999.90;999.90;;;;;;;10.96;100.00;98930.25;5032694;28;20087;-74
2023/01/02 04:45:46;;;;;;;1999.90;999.90;;;;;;;10.88;100.00;98934.34;5026593;28;20034;-75
2023/01/02 04:48:11;;;;;;;1999.90;999.90;;;;;;;10.86;100.00;98935.72;5012863;28;20029;-75
2023/01/02 04:50:36;;;;;;;1999.90;999.90;;;;;;;10.90;100.00;98939.56;5012947;28;20032;-74
2023/01/02 04:53:02;;;;;;;1999.90;999.90;;;;;;;10.85;100.00;98936.78;5011927;28;20076;-75
2023/01/02 04:55:27;;;;;;;1999.90;999.90;;;;;;;10.84;100.00;98943.38;5013032;28;20117;-74
2023/01/02 04:57:52;;;;;;;1999.90;999.90;;;;;;;10.80;100.00;98942.28;5013672;28;20108;-75
2023/01/02 05:00:18;;;;;;;1999.90;999.90;;;;;;;10.84;100.00;98944.19;5012711;28;20474;-74
2023/01/02 05:02:43;;;;;;;1999.90;999.90;;;;;;;10.84;100.00;98941.44;5012763;28;20053;-75
2023/01/02 05:05:09;;;;;;;1999.90;999.90;;;;;;;10.81;100.00;98938.44;5012816;28;20028;-75
2023/01/02 05:07:36;;;;;;;1999.90;999.90;;;;;;;10.83;100.00;98941.72;5012474;28;20026;-74
2023/01/02 05:10:05;;;;;;;1999.90;999.90;;;;;;;10.84;100.00;98938.69;5012324;28;20061;-74
2023/01/02 05:12:34;;;;;;;1999.90;999.90;;;;;;;10.78;100.00;98937.06;5013242;28;20120;-74
2023/01/02 05:15:05;;;;;;;1999.90;999.90;;;;;;;10.81;100.00;98938.44;5027719;28;20144;-75
2023/01/02 05:17:37;;;;;;;1999.90;999.90;;;;;;;10.77;100.00;98942.81;5011328;28;20038;-75
2023/01/02 05:20:08;;;;;;;1999.90;999.90;;;;;;;10.77;100.00;98938.97;5012803;28;20393;-76
2023/01/02 05:25:17;;;;;;;1999.90;999.90;;;;;;;10.75;100.00;98946.63;5032183;28;20036;-75
2023/01/02 05:27:42;;;;;;;1999.90;999.90;;;;;;;10.74;100.00;98944.97;5031985;28;20029;-75
2023/01/02 05:30:08;;;;;;;1999.90;999.90;;;;;;;10.78;100.00;98948.00;5031853;28;20029;-75
2023/01/02 05:32:34;;;;;;;1999.90;999.90;;;;;;;10.81;100.00;98943.94;5031858;28;20026;-74
2023/01/02 05:34:59;;;;;;;1999.90;999.90;;;;;;;10.76;100.00;98947.47;5031639;28;20488;-74
2023/01/02 05:37:24;;;;;;;1999.90;999.90;;;;;;;10.77;100.00;98959.25;5031584;28;20029;-74
2023/01/02 05:39:50;;;;;;;1999.90;999.90;;;;;;;10.81;100.00;98960.34;5029914;28;20109;-74
2023/01/02 05:42:15;;;;;;;1999.90;999.90;;;;;;;10.79;100.00;98951.56;5031717;28;20059;-74
2023/01/02 05:44:40;;;;;;;1999.90;999.90;;;;;;;10.77;100.00;98951.84;5031247;28;20029;-74
2023/01/02 05:47:06;;;;;;;1999.90;999.90;;;;;;;10.77;100.00;98949.91;5032440;28;20038;-74
2023/01/02 05:49:31;;;;;;;1999.90;999.90;;;;;;;10.81;100.00;98958.41;5032694;28;20040;-76
2023/01/02 05:51:57;;;;;;;1999.90;999.90;;;;;;;10.79;100.00;98952.41;5031968;28;20401;-76
2023/01/02 05:54:22;;;;;;;1999.90;999.90;;;;;;;10.85;100.00;98953.22;5031122;28;20053;-74
2023/01/02 05:56:47;;;;;;;1999.90;999.90;;;;;;;10.79;100.00;98962.50;5031189;28;20037;-77
2023/01/02 05:59:13;;;;;;;1999.90;999.90;;;;;;;10.82;100.00;98956.50;5031675;28;20104;-76
2023/01/02 06:01:39;;;;;;;1999.90;999.90;;;;;;;10.75;100.00;98963.06;5031112;28;20025;-73
2023/01/02 06:04:04;;;;;;;1999.90;999.90;;;;;;;10.80;100.00;98962.25;5031457;28;20071;-73
2023/01/02 06:06:35;;;;;;;1999.90;999.90;;;;;;;10.82;100.00;98956.50;5030908;28;20025;-72
2023/01/02 06:09:01;;;;;;;1999.90;999.90;;;;;;;10.79;100.00;98962.50;5029534;28;20040;-72
2023/01/02 06:11:27;;;;;;;1999.90;999.90;;;;;;;10.83;100.00;98961.72;5030573;28;20030;-74
2023/01/02 06:13:55;;;;;;;1999.90;999.90;;;;;;;10.88;100.00;98963.63;5030630;28;20063;-74
2023/01/02 06:16:21;;;;;;;1999.90;999.90;;;;;;;10.92;100.00;98972.94;5030647;28;20029;-75
2023/01/02 06:18:47;;;;;;;1999.90;999.90;;;;;;;10.85;100.00;98978.69;5032741;28;20037;-74
2023/01/02 06:21:15;;;;;;;1999.90;999.90;;;;;;;10.83;100.00;98985.53;5030562;28;20032;-74
2023/01/02 06:23:41;;;;;;;1999.90;999.90;;;;;;;10.87;100.00;98986.63;5011348;28;20030;-73
2023/01/02 06:26:11;;;;;;;1999.90;999.90;;;;;;;10.89;100.00;98978.97;5010913;28;20030;-73
2023/01/02 06:28:38;;;;;;;1999.90;999.90;;;;;;;10.89;100.00;98989.91;5011645;28;20433;-73
2023/01/02 06:31:06;;;;;;;1999.90;999.90;;;;;;;10.93;100.00;98980.84;5010773;28;20359;-73
2023/01/02 06:33:32;;;;;;;1999.90;999.90;;;;;;;10.92;100.00;98978.41;5010823;28;20092;-73
2023/01/02 06:35:57;;;;;;;1999.90;999.90;;;;;;;10.92;100.00;98981.97;5010477;28;20394;-73
2023/01/02 06:38:23;;;;;;;1999.90;999.90;;;;;;;10.89;100.00;98978.97;5010433;28;20099;-73
2023/01/02 06:40:53;;;;;;;1999.90;999.90;;;;;;;10.88;100.00;98971.81;5011402;28;20041;-73
2023/01/02 06:43:21;;;;;;;1999.90;999.90;;;;;;;10.92;100.00;98994.84;5010718;28;20033;-73
2023/01/02 06:45:47;;;;;;;1999.90;999.90;;;;;;;10.83;100.00;98974.56;5010790;28;20022;-74
2023/01/02 06:48:13;;;;;;;1999.90;999.90;;;;;;;10.91;100.00;98980.31;5010561;28;20393;-73
2023/01/02 06:50:38;;;;;;;1999.90;999.90;;;;;;;10.90;100.00;98988.81;5013208;28;20037;-73
2023/01/02 06:53:03;;;;;;;1999.90;999.90;;;;;;;10.92;100.00;99000.31;5029926;28;20088;-76
2023/01/02 06:55:28;;;;;;;1999.90;999.90;;;;;;;10.86;100.00;98990.44;5030409;28;20033;-77
2023/01/02 06:57:54;;;;;;;1999.90;999.90;;;;;;;10.90;100.00;98997.03;5030353;28;20037;-77
2023/01/02 07:00:19;;;;;;;1999.90;999.90;;;;;;;10.88;100.00;98988.25;5027539;28;20034;-75
2023/01/02 07:02:45;;;;;;;1999.90;999.90;;;;;;;10.88;100.00;98994.56;5010416;28;20564;-77
2023/01/02 07:05:11;;;;;;;1999.90;999.90;;;;;;;10.91;100.00;98995.91;5010701;28;20113;-76
2023/01/02 07:07:37;;;;;;;1999.90;999.90;;;;;;;10.92;100.00;98995.66;5010141;28;20057;-76
2023/01/02 07:10:03;;;;;;;1999.90;999.90;;;;;;;10.88;100.00;98986.34;5010214;28;20033;-78
2023/01/02 07:12:28;;;;;;;1999.90;999.90;;;;;;;10.94;100.00;98995.38;5010490;28;20033;-77
2023/01/02 07:14:54;;;;;;;1999.90;999.90;;;;;;;10.92;100.00;99000.31;5010500;28;20025;-76
2023/01/02 07:17:19;;;;;;;1999.90;999.90;;;;;;;11.01;100.00;99009.63;5012623;28;20099;-76
2023/01/02 07:19:44;;;;;;;1999.90;999.90;;;;;;;10.95;100.00;98999.75;5014119;28;20018;-77
2023/01/02 07:22:09;;;;;;;1999.90;999.90;;;;;;;10.94;100.00;99006.31;5019328;28;20025;-76
2023/01/02 07:24:35;;;;;;;1999.90;999.90;;;;;;;10.96;100.00;99012.38;5034293;28;20120;-76
2023/01/02 07:27:00;;;;;;;1999.90;999.90;;;;;;;11.01;100.00;99006.88;5032580;28;20053;-76
2023/01/02 07:29:26;;;;;;;1999.90;999.90;;;;;;;10.98;100.00;99008.25;5034198;28;20129;-77
2023/01/02 07:31:51;;;;;;;1999.90;999.90;;;;;;;11.05;100.00;99008.00;5033800;28;20021;-78
2023/01/02 07:34:16;;;;;;;1999.90;999.90;;;;;;;11.03;100.00;99012.91;5033854;28;20520;-77
2023/01/02 07:36:42;;;;;;;1999.90;999.90;;;;;;;11.02;100.00;99011.28;5034075;28;20029;-77
2023/01/02 07:39:07;;;;;;;1999.90;999.90;;;;;;;11.07;100.00;99011.28;5033499;28;20159;-77
2023/01/02 07:41:32;;;;;;;1999.90;999.90;;;;;;;11.04;100.00;99014.56;5034239;28;20029;-77
2023/01/02 07:43:58;;;;;;;1999.90;999.90;;;;;;;11.09;100.00;99011.81;5033256;28;20128;-77
2023/01/02 07:46:24;;;;;;;1999.90;999.90;;;;;;;11.12;100.00;99012.09;5034781;28;20628;-77
2023/01/02 07:48:49;;;;;;;1999.90;999.90;;;;;;;11.14;100.00;99009.09;5035680;28;20038;-78
2023/01/02 07:51:15;;;;;;;1999.90;999.90;;;;;;;11.14;100.00;99000.88;5036044;28;20111;-77
2023/01/02 07:53:40;;;;;;;1999.90;999.90;;;;;;;11.20;100.00;99003.34;5034900;28;20077;-78
2023/01/02 07:56:06;;;;;;;1999.90;999.90;;;;;;;11.16;100.00;99020.59;5034408;28;20048;-78
2023/01/02 07:58:34;;;;;;;1999.90;999.90;;;;;;;11.12;100.00;99009.34;5037064;28;20431;-79
2023/01/02 08:01:11;;;;;;;1999.90;999.90;;;;;;;11.12;100.00;99025.78;5035957;28;20495;-77
2023/01/02 08:03:37;;;;;;;1999.90;999.90;;;;;;;11.16;100.00;99012.38;5034928;28;20033;-78
2023/01/02 08:06:11;;;;;;;1999.90;999.90;;;;;;;11.14;100.00;99022.78;5034180;28;20507;-78
2023/01/02 08:08:37;;;;;;;1999.90;999.90;;;;;;;11.23;100.00;99024.72;5033727;28;20029;-77
2023/01/02 08:11:08;;;;;;;1999.90;999.90;;;;;;;11.19;100.00;99022.78;5033348;28;20112;-77
2023/01/02 08:13:36;;;;;;;1999.90;999.90;;;;;;;11.27;100.00;99030.47;5033897;28;20021;-78
2023/01/02 08:16:07;;;;;;;1999.90;999.90;;;;;;;11.29;100.00;99034.56;5033405;28;20116;-78
2023/01/02 08:18:33;;;;;;;1999.90;999.90;;;;;;;11.25;100.00;99051.81;5032891;28;20071;-76
2023/01/02 08:20:58;;;;;;;1999.90;999.90;;;;;;;11.21;100.00;99029.63;5025817;28;20021;-76
2023/01/02 08:23:24;;;;;;;1999.90;999.90;;;;;;;11.23;100.00;99046.63;5033426;28;20030;-76
2023/01/02 08:25:49;;;;;;;1999.90;999.90;;;;;;;11.31;100.00;99044.44;5034007;28;20363;-78
2023/01/02 08:28:14;;;;;;;1999.90;999.90;;;;;;;11.30;100.00;99046.34;5033779;28;20033;-78
2023/01/02 08:30:40;;;;;;;1999.90;999.90;;;;;;;11.35;100.00;99045.53;5034084;28;20522;-76
2023/01/02 08:33:05;;;;;;;1999.90;999.90;;;;;;;11.35;100.00;99042.78;5034042;28;20392;-79
2023/01/02 08:35:31;;;;;;;1999.90;999.90;;;;;;;11.37;100.00;99052.38;5033349;28;20436;-77
2023/01/02 08:37:56;;;;;;;1999.90;999.90;;;;;;;11.45;100.00;99051.00;5033214;28;20107;-78
2023/01/02 08:40:22;;;;;;;1999.90;999.90;;;;;;;11.50;100.00;99051.00;5033443;28;20037;-78
2023/01/02 08:42:47;;;;;;;1999.90;999.90;;;;;;;11.52;100.00;99059.78;5033191;28;20482;-78
2023/01/02 08:45:12;;;;;;;1999.90;999.90;;;;;;;11.56;100.00;99067.16;5032756;28;20199;-76
2023/01/02 08:47:38;;;;;;;1999.90;999.90;;;;;;;11.57;100.00;99062.50;5032584;28;20496;-76
2023/01/02 08:50:03;;;;;;;1999.90;999.90;;;;;;;11.64;100.00;99061.16;5033787;28;20473;-75
2023/01/02 08:52:29;;;;;;;1999.90;999.90;;;;;;;11.62;100.00;99059.78;5032615;28;20087;-75
2023/01/02 08:54:54;;;;;;;1999.90;999.90;;;;;;;11.62;100.00;99066.06;5032588;28;20053;-76
2023/01/02 08:57:20;;;;;;;1999.90;999.90;;;;;;;11.63;100.00;99066.91;5032592;28;20025;-76
2023/01/02 08:59:45;;;;;;;1999.90;999.90;;;;;;;11.67;100.00;99068.81;5032430;28;20026;-75
2023/01/02 09:02:14;;;;;;;1999.90;999.90;;;;;;;11.75;100.00;99065.53;5032713;28;20041;-78
2023/01/02 09:04:40;;;;;;;1999.90;999.90;;;;;;;11.80;100.00;99065.56;5032258;28;20029;-76
2023/01/02 09:07:05;;;;;;;1999.90;999.90;;;;;;;11.88;100.00;99077.88;5032248;28;20022;-77
2023/01/02 09:09:31;;;;;;;1999.90;999.90;;;;;;;11.85;100.00;99069.38;5020707;28;20083;-76
2023/01/02 09:11:57;;;;;;;1999.90;999.90;;;;;;;11.75;100.00;99076.50;5022670;28;20462;-76
2023/01/02 09:14:23;;;;;;;1999.90;999.90;;;;;;;11.85;100.00;99085.81;5017639;28;20475;-78
2023/01/02 09:16:49;;;;;;;1999.90;999.90;;;;;;;11.80;100.00;99079.25;5011265;28;20134;-77
2023/01/02 09:19:15;;;;;;;1999.90;999.90;;;;;;;11.84;100.00;99090.47;5012410;28;20115;-76
2023/01/02 09:21:40;;;;;;;1999.90;999.90;;;;;;;11.80;100.00;99090.22;5013548;28;20034;-78
2023/01/02 09:24:06;;;;;;;1999.90;999.90;;;;;;;11.82;100.00;99088.03;5033856;28;20079;-77
2023/01/02 09:26:32;;;;;;;1999.90;999.90;;;;;;;11.77;100.00;99082.56;5032204;28;20060;-77
2023/01/02 09:28:57;;;;;;;1999.90;999.90;;;;;;;11.73;100.00;99075.97;5031658;28;20112;-76
2023/01/02 09:31:22;;;;;;;1999.90;999.90;;;;;;;11.77;100.00;99077.06;5031891;28;20029;-78
2023/01/02 09:33:48;;;;;;;1999.90;999.90;;;;;;;11.81;100.00;99083.63;5031797;28;20033;-77
2023/01/02 09:36:16;;;;;;;1999.90;999.90;;;;;;;11.97;100.00;99084.44;5025845;28;20057;-77
2023/01/02 09:38:42;;;;;;;1999.90;999.90;;;;;;;12.10;100.00;99088.53;5019343;28;20109;-77
2023/01/02 09:41:22;;;;;;;1999.90;999.90;;;;;;;11.99;100.00;99087.75;5020747;28;20109;-77
2023/01/02 09:43:59;;;;;;;1999.90;999.90;;;;;;;12.12;100.00;99075.38;5021433;28;20021;-77
2023/01/02 09:46:38;;;;;;;1999.90;999.90;;;;;;;12.09;100.00;99082.22;5023931;28;20021;-76
2023/01/02 09:49:04;;;;;;;1999.90;999.90;;;;;;;12.22;100.00;99075.34;5027695;28;20108;-78
2023/01/02 09:51:31;;;;;;;1999.90;999.90;;;;;;;12.29;100.00;99075.88;5032278;28;20205;-78
2023/01/02 09:53:56;;;;;;;1999.90;999.90;;;;;;;12.23;100.00;99077.81;5031803;28;20048;-76
2023/01/02 09:56:35;;;;;;;1999.90;999.90;;;;;;;12.19;100.00;99065.75;5031314;28;20509;-77
2023/01/02 09:59:20;;;;;;;1999.90;999.90;;;;;;;12.27;100.00;99078.09;5030042;28;20017;-77
2023/01/02 10:02:19;;;;;;;1999.90;999.90;;;;;;;12.29;100.00;99070.38;5030388;28;20370;-74
2023/01/02 10:04:54;;;;;;;1999.90;999.90;;;;;;;12.34;100.00;99064.91;5030032;28;20045;-74
2023/01/02 10:07:33;;;;;;;1999.90;999.90;;;;;;;12.30;100.00;99061.06;5030095;28;20585;-75
2023/01/02 10:10:12;;;;;;;1999.90;999.90;;;;;;;12.40;100.00;99066.53;5030029;28;20053;-74
2023/01/02 10:13:00;;;;;;;1999.90;999.90;;;;;;;12.34;100.00;99064.91;5030553;28;20095;-74
2023/01/02 10:15:28;;;;;;;1999.90;999.90;;;;;;;12.47;100.00;99058.00;5030181;28;20038;-75
2023/01/02 10:18:03;;;;;;;1999.90;999.90;;;;;;;12.29;100.00;99059.41;5030983;28;20025;-74
2023/01/02 10:20:35;;;;;;;1999.90;999.90;;;;;;;12.31;100.00;99059.94;5031319;28;20501;-75
2023/01/02 10:23:11;;;;;;;1999.90;999.90;;;;;;;12.25;100.00;99059.13;5032408;28;20032;-74
2023/01/02 10:25:40;;;;;;;1999.90;999.90;;;;;;;12.07;100.00;99058.91;5031181;28;20029;-74
2023/01/02 10:28:24;;;;;;;1999.90;999.90;;;;;;;12.09;100.00;99056.75;5023578;28;20034;-74
2023/01/02 10:30:58;;;;;;;1999.90;999.90;;;;;;;12.09;100.00;99060.28;5042182;28;20421;-75
2023/01/02 10:33:58;;;;;;;1999.90;999.90;;;;;;;11.96;100.00;99063.63;5022115;28;20110;-75
2023/01/02 10:36:28;;;;;;;1999.90;999.90;;;;;;;11.94;100.00;99056.75;5039429;28;20049;-75
2023/01/02 10:39:02;;;;;;;1999.90;999.90;;;;;;;11.99;100.00;99045.78;5026091;28;20097;-74
2023/01/02 10:41:29;;;;;;;1999.90;999.90;;;;;;;11.93;100.00;99049.63;5028699;28;20029;-75
2023/01/02 10:43:58;;;;;;;1999.90;999.90;;;;;;;11.88;100.00;99041.41;5031217;28;20036;-75
2023/01/02 10:46:36;;;;;;;1999.90;999.90;;;;;;;11.79;100.00;99047.47;5030778;28;20030;-74
2023/01/02 10:49:03;;;;;;;1999.90;999.90;;;;;;;11.86;100.00;99043.59;5030679;28;20521;-74
2023/01/02 10:51:29;;;;;;;1999.90;999.90;;;;;;;11.80;100.00;99040.88;5030078;28;20478;-75
2023/01/02 10:54:03;;;;;;;1999.90;999.90;;;;;;;11.77;100.00;99038.69;5030854;28;20051;-74
2023/01/02 10:56:31;;;;;;;1999.90;999.90;;;;;;;11.68;100.00;99037.56;5032011;28;20030;-74
2023/01/02 10:58:58;;;;;;;1999.90;999.90;;;;;;;11.65;100.00;99032.63;5031314;28;20068;-75